Terminal Aerodrome Forecast
Issued by NWS Shreveport, LA

Home | Current Version | Previous Version | Text Only | Print | Product List | Glossary On
Versions: 1 2 3 4 5 6 7 8 9 10 11 12 13 14
000
FTUS44 KSHV 010533
TAFTYR
TAF
KTYR 010533Z 0106/0206 16005KT P6SM BKN250
     FM011300 18004KT P6SM BKN020 BKN060
     FM011600 19008KT P6SM SCT035 BKN250
     FM012000 16009KT P6SM BKN050 BKN250
     FM020100 16005KT P6SM BKN150=

USA.gov is the U.S. government's official web portal to all federal, state and local government web resources and services.